PWSweather.com
Personal Weather Stations
Station Observations
IESRVJEREZ
Ies Fco. Romero Vargas, Jerez De La FronteraES 11408

Ies Fco. Romero VargasJerez De La FronteraES 11408

Lat: 36.67203, Lon: -6.129915

Elevation: 98

Station Type: FWS 20

http://www.iesromerovargas.net/estacion_meteorologica/Cumulus/web/

High Low Average
Temperature 67.1°F19.5°F 67.1°F19.5°F 67.1°F19.5°F
Dew Point 66.5°F19.2°F 66.5°F19.2°F 66.5°F19.2°F
Winds 1.6 mph SSE2.6 mph SSE 1.6 mph 2.6 mph 1.6 mph 2.6 mph
Wind Gusts 3.1 mph5.0 mph 3.1 mph5.0 mph 3.1 mph5.0 mph
Humidity 98% 98% 98%
Pressure 29.86 in1011.20 in 29.65 in1004.10 in -
Precipitation 0.00 in0.00 in - -
Hour Temp Dew Point Humidity Winds Wind Gusts Pressure Precip Precip Rate Daily Precip Total
12:00 AM 67.1°F19.5°C 66.5°F19.2°C 98% 1.6 mph SSE2.6 kmh SSE 3.1 mph5.0 kmh 29.86 in1011.2 mb 0.00 in0.0 mm 0.00 in/hr0.0 mm/hr 0.00 in0.0 mm
12:15 AM 67.1°F19.5°C 66.5°F19.2°C 98% 1.6 mph SSE2.6 kmh SSE 3.1 mph5.0 kmh 29.86 in1011.2 mb 0.00 in0.0 mm 0.00 in/hr0.0 mm/hr 0.00 in0.0 mm
12:30 AM 67.1°F19.5°C 66.5°F19.2°C 98% 1.6 mph SSE2.6 kmh SSE 3.1 mph5.0 kmh 29.86 in1011.2 mb 0.00 in0.0 mm 0.00 in/hr0.0 mm/hr 0.00 in0.0 mm
12:45 AM 67.1°F19.5°C 66.5°F19.2°C 98% 1.6 mph SSE2.6 kmh SSE 3.1 mph5.0 kmh 29.86 in1011.2 mb 0.00 in0.0 mm 0.00 in/hr0.0 mm/hr 0.00 in0.0 mm
01:00 AM 67.1°F19.5°C 66.5°F19.2°C 98% 1.6 mph SSE2.6 kmh SSE 3.1 mph5.0 kmh 29.85 in1010.8 mb 0.00 in0.0 mm 0.00 in/hr0.0 mm/hr 0.00 in0.0 mm
01:15 AM 67.1°F19.5°C 66.5°F19.2°C 98% 1.6 mph SSE2.6 kmh SSE 3.1 mph5.0 kmh 29.85 in1010.8 mb 0.00 in0.0 mm 0.00 in/hr0.0 mm/hr 0.00 in0.0 mm
01:30 AM 67.1°F19.5°C 66.5°F19.2°C 98% 1.6 mph SSE2.6 kmh SSE 3.1 mph5.0 kmh 29.84 in1010.5 mb 0.00 in0.0 mm 0.00 in/hr0.0 mm/hr 0.00 in0.0 mm
01:45 AM 67.1°F19.5°C 66.5°F19.2°C 98% 1.6 mph SSE2.6 kmh SSE 3.1 mph5.0 kmh 29.83 in1010.2 mb 0.00 in0.0 mm 0.00 in/hr0.0 mm/hr 0.00 in0.0 mm
02:00 AM 67.1°F19.5°C 66.5°F19.2°C 98% 1.6 mph SSE2.6 kmh SSE 3.1 mph5.0 kmh 29.83 in1010.2 mb 0.00 in0.0 mm 0.00 in/hr0.0 mm/hr 0.00 in0.0 mm
02:15 AM 67.1°F19.5°C 66.5°F19.2°C 98% 1.6 mph SSE2.6 kmh SSE 3.1 mph5.0 kmh 29.82 in1009.8 mb 0.00 in0.0 mm 0.00 in/hr0.0 mm/hr 0.00 in0.0 mm
02:30 AM 67.1°F19.5°C 66.5°F19.2°C 98% 1.6 mph SSE2.6 kmh SSE 3.1 mph5.0 kmh 29.81 in1009.5 mb 0.00 in0.0 mm 0.00 in/hr0.0 mm/hr 0.00 in0.0 mm
02:45 AM 67.1°F19.5°C 66.5°F19.2°C 98% 1.6 mph SSE2.6 kmh SSE 3.1 mph5.0 kmh 29.81 in1009.5 mb 0.00 in0.0 mm 0.00 in/hr0.0 mm/hr 0.00 in0.0 mm
03:00 AM 67.1°F19.5°C 66.5°F19.2°C 98% 1.6 mph SSE2.6 kmh SSE 3.1 mph5.0 kmh 29.81 in1009.5 mb 0.00 in0.0 mm 0.00 in/hr0.0 mm/hr 0.00 in0.0 mm
03:15 AM 67.1°F19.5°C 66.5°F19.2°C 98% 1.6 mph SSE2.6 kmh SSE 3.1 mph5.0 kmh 29.81 in1009.5 mb 0.00 in0.0 mm 0.00 in/hr0.0 mm/hr 0.00 in0.0 mm
03:30 AM 67.1°F19.5°C 66.5°F19.2°C 98% 1.6 mph SSE2.6 kmh SSE 3.1 mph5.0 kmh 29.81 in1009.5 mb 0.00 in0.0 mm 0.00 in/hr0.0 mm/hr 0.00 in0.0 mm
03:45 AM 67.1°F19.5°C 66.5°F19.2°C 98% 1.6 mph SSE2.6 kmh SSE 3.1 mph5.0 kmh 29.81 in1009.5 mb 0.00 in0.0 mm 0.00 in/hr0.0 mm/hr 0.00 in0.0 mm
04:00 AM 67.1°F19.5°C 66.5°F19.2°C 98% 1.6 mph SSE2.6 kmh SSE 3.1 mph5.0 kmh 29.81 in1009.5 mb 0.00 in0.0 mm 0.00 in/hr0.0 mm/hr 0.00 in0.0 mm
04:15 AM 67.1°F19.5°C 66.5°F19.2°C 98% 1.6 mph SSE2.6 kmh SSE 3.1 mph5.0 kmh 29.80 in1009.1 mb 0.00 in0.0 mm 0.00 in/hr0.0 mm/hr 0.00 in0.0 mm
04:30 AM 67.1°F19.5°C 66.5°F19.2°C 98% 1.6 mph SSE2.6 kmh SSE 3.1 mph5.0 kmh 29.80 in1009.1 mb 0.00 in0.0 mm 0.00 in/hr0.0 mm/hr 0.00 in0.0 mm
04:45 AM 67.1°F19.5°C 66.5°F19.2°C 98% 1.6 mph SSE2.6 kmh SSE 3.1 mph5.0 kmh 29.80 in1009.1 mb 0.00 in0.0 mm 0.00 in/hr0.0 mm/hr 0.00 in0.0 mm
05:00 AM 67.1°F19.5°C 66.5°F19.2°C 98% 1.6 mph SSE2.6 kmh SSE 3.1 mph5.0 kmh 29.80 in1009.1 mb 0.00 in0.0 mm 0.00 in/hr0.0 mm/hr 0.00 in0.0 mm
05:15 AM 67.1°F19.5°C 66.5°F19.2°C 98% 1.6 mph SSE2.6 kmh SSE 3.1 mph5.0 kmh 29.80 in1009.1 mb 0.00 in0.0 mm 0.00 in/hr0.0 mm/hr 0.00 in0.0 mm
05:30 AM 67.1°F19.5°C 66.5°F19.2°C 98% 1.6 mph SSE2.6 kmh SSE 3.1 mph5.0 kmh 29.80 in1009.1 mb 0.00 in0.0 mm 0.00 in/hr0.0 mm/hr 0.00 in0.0 mm
05:45 AM 67.1°F19.5°C 66.5°F19.2°C 98% 1.6 mph SSE2.6 kmh SSE 3.1 mph5.0 kmh 29.80 in1009.1 mb 0.00 in0.0 mm 0.00 in/hr0.0 mm/hr 0.00 in0.0 mm
06:00 AM 67.1°F19.5°C 66.5°F19.2°C 98% 1.6 mph SSE2.6 kmh SSE 3.1 mph5.0 kmh 29.81 in1009.5 mb 0.00 in0.0 mm 0.00 in/hr0.0 mm/hr 0.00 in0.0 mm
06:15 AM 67.1°F19.5°C 66.5°F19.2°C 98% 1.6 mph SSE2.6 kmh SSE 3.1 mph5.0 kmh 29.82 in1009.8 mb 0.00 in0.0 mm 0.00 in/hr0.0 mm/hr 0.00 in0.0 mm
06:30 AM 67.1°F19.5°C 66.5°F19.2°C 98% 1.6 mph SSE2.6 kmh SSE 3.1 mph5.0 kmh 29.82 in1009.8 mb 0.00 in0.0 mm 0.00 in/hr0.0 mm/hr 0.00 in0.0 mm
06:45 AM 67.1°F19.5°C 66.5°F19.2°C 98% 1.6 mph SSE2.6 kmh SSE 3.1 mph5.0 kmh 29.82 in1009.8 mb 0.00 in0.0 mm 0.00 in/hr0.0 mm/hr 0.00 in0.0 mm
07:00 AM 67.1°F19.5°C 66.5°F19.2°C 98% 1.6 mph SSE2.6 kmh SSE 3.1 mph5.0 kmh 29.83 in1010.2 mb 0.00 in0.0 mm 0.00 in/hr0.0 mm/hr 0.00 in0.0 mm
07:15 AM 67.1°F19.5°C 66.5°F19.2°C 98% 1.6 mph SSE2.6 kmh SSE 3.1 mph5.0 kmh 29.83 in1010.2 mb 0.00 in0.0 mm 0.00 in/hr0.0 mm/hr 0.00 in0.0 mm
07:30 AM 67.1°F19.5°C 66.5°F19.2°C 98% 1.6 mph SSE2.6 kmh SSE 3.1 mph5.0 kmh 29.83 in1010.2 mb 0.00 in0.0 mm 0.00 in/hr0.0 mm/hr 0.00 in0.0 mm
07:45 AM 67.1°F19.5°C 66.5°F19.2°C 98% 1.6 mph SSE2.6 kmh SSE 3.1 mph5.0 kmh 29.83 in1010.2 mb 0.00 in0.0 mm 0.00 in/hr0.0 mm/hr 0.00 in0.0 mm
08:00 AM 67.1°F19.5°C 66.5°F19.2°C 98% 1.6 mph SSE2.6 kmh SSE 3.1 mph5.0 kmh 29.83 in1010.2 mb 0.00 in0.0 mm 0.00 in/hr0.0 mm/hr 0.00 in0.0 mm
08:15 AM 67.1°F19.5°C 66.5°F19.2°C 98% 1.6 mph SSE2.6 kmh SSE 3.1 mph5.0 kmh 29.83 in1010.2 mb 0.00 in0.0 mm 0.00 in/hr0.0 mm/hr 0.00 in0.0 mm
08:30 AM 67.1°F19.5°C 66.5°F19.2°C 98% 1.6 mph SSE2.6 kmh SSE 3.1 mph5.0 kmh 29.84 in1010.5 mb 0.00 in0.0 mm 0.00 in/hr0.0 mm/hr 0.00 in0.0 mm
08:45 AM 67.1°F19.5°C 66.5°F19.2°C 98% 1.6 mph SSE2.6 kmh SSE 3.1 mph5.0 kmh 29.85 in1010.8 mb 0.00 in0.0 mm 0.00 in/hr0.0 mm/hr 0.00 in0.0 mm
09:00 AM 67.1°F19.5°C 66.5°F19.2°C 98% 1.6 mph SSE2.6 kmh SSE 3.1 mph5.0 kmh 29.84 in1010.5 mb 0.00 in0.0 mm 0.00 in/hr0.0 mm/hr 0.00 in0.0 mm
09:15 AM 67.1°F19.5°C 66.5°F19.2°C 98% 1.6 mph SSE2.6 kmh SSE 3.1 mph5.0 kmh 29.84 in1010.5 mb 0.00 in0.0 mm 0.00 in/hr0.0 mm/hr 0.00 in0.0 mm
09:30 AM 67.1°F19.5°C 66.5°F19.2°C 98% 1.6 mph SSE2.6 kmh SSE 3.1 mph5.0 kmh 29.82 in1009.8 mb 0.00 in0.0 mm 0.00 in/hr0.0 mm/hr 0.00 in0.0 mm
09:45 AM 67.1°F19.5°C 66.5°F19.2°C 98% 1.6 mph SSE2.6 kmh SSE 3.1 mph5.0 kmh 29.82 in1009.8 mb 0.00 in0.0 mm 0.00 in/hr0.0 mm/hr 0.00 in0.0 mm
10:00 AM 67.1°F19.5°C 66.5°F19.2°C 98% 1.6 mph SSE2.6 kmh SSE 3.1 mph5.0 kmh 29.81 in1009.5 mb 0.00 in0.0 mm 0.00 in/hr0.0 mm/hr 0.00 in0.0 mm
10:15 AM 67.1°F19.5°C 66.5°F19.2°C 98% 1.6 mph SSE2.6 kmh SSE 3.1 mph5.0 kmh 29.81 in1009.5 mb 0.00 in0.0 mm 0.00 in/hr0.0 mm/hr 0.00 in0.0 mm
10:30 AM 67.1°F19.5°C 66.5°F19.2°C 98% 1.6 mph SSE2.6 kmh SSE 3.1 mph5.0 kmh 29.80 in1009.1 mb 0.00 in0.0 mm 0.00 in/hr0.0 mm/hr 0.00 in0.0 mm
10:45 AM 67.1°F19.5°C 66.5°F19.2°C 98% 1.6 mph SSE2.6 kmh SSE 3.1 mph5.0 kmh 29.80 in1009.1 mb 0.00 in0.0 mm 0.00 in/hr0.0 mm/hr 0.00 in0.0 mm
11:00 AM 67.1°F19.5°C 66.5°F19.2°C 98% 1.6 mph SSE2.6 kmh SSE 3.1 mph5.0 kmh 29.79 in1008.8 mb 0.00 in0.0 mm 0.00 in/hr0.0 mm/hr 0.00 in0.0 mm
11:15 AM 67.1°F19.5°C 66.5°F19.2°C 98% 1.6 mph SSE2.6 kmh SSE 3.1 mph5.0 kmh 29.79 in1008.8 mb 0.00 in0.0 mm 0.00 in/hr0.0 mm/hr 0.00 in0.0 mm
11:30 AM 67.1°F19.5°C 66.5°F19.2°C 98% 1.6 mph SSE2.6 kmh SSE 3.1 mph5.0 kmh 29.78 in1008.5 mb 0.00 in0.0 mm 0.00 in/hr0.0 mm/hr 0.00 in0.0 mm
11:45 AM 67.1°F19.5°C 66.5°F19.2°C 98% 1.6 mph SSE2.6 kmh SSE 3.1 mph5.0 kmh 29.77 in1008.1 mb 0.00 in0.0 mm 0.00 in/hr0.0 mm/hr 0.00 in0.0 mm
12:00 PM 67.1°F19.5°C 66.5°F19.2°C 98% 1.6 mph SSE2.6 kmh SSE 3.1 mph5.0 kmh 29.77 in1008.1 mb 0.00 in0.0 mm 0.00 in/hr0.0 mm/hr 0.00 in0.0 mm
12:15 PM 67.1°F19.5°C 66.5°F19.2°C 98% 1.6 mph SSE2.6 kmh SSE 3.1 mph5.0 kmh 29.76 in1007.8 mb 0.00 in0.0 mm 0.00 in/hr0.0 mm/hr 0.00 in0.0 mm
12:30 PM 67.1°F19.5°C 66.5°F19.2°C 98% 1.6 mph SSE2.6 kmh SSE 3.1 mph5.0 kmh 29.75 in1007.5 mb 0.00 in0.0 mm 0.00 in/hr0.0 mm/hr 0.00 in0.0 mm
12:45 PM 67.1°F19.5°C 66.5°F19.2°C 98% 1.6 mph SSE2.6 kmh SSE 3.1 mph5.0 kmh 29.75 in1007.5 mb 0.00 in0.0 mm 0.00 in/hr0.0 mm/hr 0.00 in0.0 mm
01:00 PM 67.1°F19.5°C 66.5°F19.2°C 98% 1.6 mph SSE2.6 kmh SSE 3.1 mph5.0 kmh 29.74 in1007.1 mb 0.00 in0.0 mm 0.00 in/hr0.0 mm/hr 0.00 in0.0 mm
01:15 PM 67.1°F19.5°C 66.5°F19.2°C 98% 1.6 mph SSE2.6 kmh SSE 3.1 mph5.0 kmh 29.73 in1006.8 mb 0.00 in0.0 mm 0.00 in/hr0.0 mm/hr 0.00 in0.0 mm
01:30 PM 67.1°F19.5°C 66.5°F19.2°C 98% 1.6 mph SSE2.6 kmh SSE 3.1 mph5.0 kmh 29.73 in1006.8 mb 0.00 in0.0 mm 0.00 in/hr0.0 mm/hr 0.00 in0.0 mm
01:45 PM 67.1°F19.5°C 66.5°F19.2°C 98% 1.6 mph SSE2.6 kmh SSE 3.1 mph5.0 kmh 29.72 in1006.4 mb 0.00 in0.0 mm 0.00 in/hr0.0 mm/hr 0.00 in0.0 mm
02:00 PM 67.1°F19.5°C 66.5°F19.2°C 98% 1.6 mph SSE2.6 kmh SSE 3.1 mph5.0 kmh 29.71 in1006.1 mb 0.00 in0.0 mm 0.00 in/hr0.0 mm/hr 0.00 in0.0 mm
02:15 PM 67.1°F19.5°C 66.5°F19.2°C 98% 1.6 mph SSE2.6 kmh SSE 3.1 mph5.0 kmh 29.71 in1006.1 mb 0.00 in0.0 mm 0.00 in/hr0.0 mm/hr 0.00 in0.0 mm
02:30 PM 67.1°F19.5°C 66.5°F19.2°C 98% 1.6 mph SSE2.6 kmh SSE 3.1 mph5.0 kmh 29.70 in1005.8 mb 0.00 in0.0 mm 0.00 in/hr0.0 mm/hr 0.00 in0.0 mm
02:45 PM 67.1°F19.5°C 66.5°F19.2°C 98% 1.6 mph SSE2.6 kmh SSE 3.1 mph5.0 kmh 29.69 in1005.4 mb 0.00 in0.0 mm 0.00 in/hr0.0 mm/hr 0.00 in0.0 mm
03:00 PM 67.1°F19.5°C 66.5°F19.2°C 98% 1.6 mph SSE2.6 kmh SSE 3.1 mph5.0 kmh 29.69 in1005.4 mb 0.00 in0.0 mm 0.00 in/hr0.0 mm/hr 0.00 in0.0 mm
03:15 PM 67.1°F19.5°C 66.5°F19.2°C 98% 1.6 mph SSE2.6 kmh SSE 3.1 mph5.0 kmh 29.68 in1005.1 mb 0.00 in0.0 mm 0.00 in/hr0.0 mm/hr 0.00 in0.0 mm
03:30 PM 67.1°F19.5°C 66.5°F19.2°C 98% 1.6 mph SSE2.6 kmh SSE 3.1 mph5.0 kmh 29.67 in1004.7 mb 0.00 in0.0 mm 0.00 in/hr0.0 mm/hr 0.00 in0.0 mm
03:45 PM 67.1°F19.5°C 66.5°F19.2°C 98% 1.6 mph SSE2.6 kmh SSE 3.1 mph5.0 kmh 29.67 in1004.7 mb 0.00 in0.0 mm 0.00 in/hr0.0 mm/hr 0.00 in0.0 mm
04:00 PM 67.1°F19.5°C 66.5°F19.2°C 98% 1.6 mph SSE2.6 kmh SSE 3.1 mph5.0 kmh 29.66 in1004.4 mb 0.00 in0.0 mm 0.00 in/hr0.0 mm/hr 0.00 in0.0 mm
04:15 PM 67.1°F19.5°C 66.5°F19.2°C 98% 1.6 mph SSE2.6 kmh SSE 3.1 mph5.0 kmh 29.65 in1004.1 mb 0.00 in0.0 mm 0.00 in/hr0.0 mm/hr 0.00 in0.0 mm
04:30 PM 67.1°F19.5°C 66.5°F19.2°C 98% 1.6 mph SSE2.6 kmh SSE 3.1 mph5.0 kmh 29.66 in1004.4 mb 0.00 in0.0 mm 0.00 in/hr0.0 mm/hr 0.00 in0.0 mm
04:45 PM 67.1°F19.5°C 66.5°F19.2°C 98% 1.6 mph SSE2.6 kmh SSE 3.1 mph5.0 kmh 29.66 in1004.4 mb 0.00 in0.0 mm 0.00 in/hr0.0 mm/hr 0.00 in0.0 mm
05:00 PM 67.1°F19.5°C 66.5°F19.2°C 98% 1.6 mph SSE2.6 kmh SSE 3.1 mph5.0 kmh 29.65 in1004.1 mb 0.00 in0.0 mm 0.00 in/hr0.0 mm/hr 0.00 in0.0 mm
05:15 PM 67.1°F19.5°C 66.5°F19.2°C 98% 1.6 mph SSE2.6 kmh SSE 3.1 mph5.0 kmh 29.65 in1004.1 mb 0.00 in0.0 mm 0.00 in/hr0.0 mm/hr 0.00 in0.0 mm
05:30 PM 67.1°F19.5°C 66.5°F19.2°C 98% 1.6 mph SSE2.6 kmh SSE 3.1 mph5.0 kmh 29.65 in1004.1 mb 0.00 in0.0 mm 0.00 in/hr0.0 mm/hr 0.00 in0.0 mm
05:45 PM 67.1°F19.5°C 66.5°F19.2°C 98% 1.6 mph SSE2.6 kmh SSE 3.1 mph5.0 kmh 29.65 in1004.1 mb 0.00 in0.0 mm 0.00 in/hr0.0 mm/hr 0.00 in0.0 mm
06:00 PM 67.1°F19.5°C 66.5°F19.2°C 98% 1.6 mph SSE2.6 kmh SSE 3.1 mph5.0 kmh 29.65 in1004.1 mb 0.00 in0.0 mm 0.00 in/hr0.0 mm/hr 0.00 in0.0 mm
06:15 PM 67.1°F19.5°C 66.5°F19.2°C 98% 1.6 mph SSE2.6 kmh SSE 3.1 mph5.0 kmh 29.65 in1004.1 mb 0.00 in0.0 mm 0.00 in/hr0.0 mm/hr 0.00 in0.0 mm
06:30 PM 67.1°F19.5°C 66.5°F19.2°C 98% 1.6 mph SSE2.6 kmh SSE 3.1 mph5.0 kmh 29.65 in1004.1 mb 0.00 in0.0 mm 0.00 in/hr0.0 mm/hr 0.00 in0.0 mm
06:45 PM 67.1°F19.5°C 66.5°F19.2°C 98% 1.6 mph SSE2.6 kmh SSE 3.1 mph5.0 kmh 29.65 in1004.1 mb 0.00 in0.0 mm 0.00 in/hr0.0 mm/hr 0.00 in0.0 mm
07:00 PM 67.1°F19.5°C 66.5°F19.2°C 98% 1.6 mph SSE2.6 kmh SSE 3.1 mph5.0 kmh 29.65 in1004.1 mb 0.00 in0.0 mm 0.00 in/hr0.0 mm/hr 0.00 in0.0 mm
07:15 PM 67.1°F19.5°C 66.5°F19.2°C 98% 1.6 mph SSE2.6 kmh SSE 3.1 mph5.0 kmh 29.66 in1004.4 mb 0.00 in0.0 mm 0.00 in/hr0.0 mm/hr 0.00 in0.0 mm
07:30 PM 67.1°F19.5°C 66.5°F19.2°C 98% 1.6 mph SSE2.6 kmh SSE 3.1 mph5.0 kmh 29.66 in1004.4 mb 0.00 in0.0 mm 0.00 in/hr0.0 mm/hr 0.00 in0.0 mm
07:45 PM 67.1°F19.5°C 66.5°F19.2°C 98% 1.6 mph SSE2.6 kmh SSE 3.1 mph5.0 kmh 29.66 in1004.4 mb 0.00 in0.0 mm 0.00 in/hr0.0 mm/hr 0.00 in0.0 mm
08:00 PM 67.1°F19.5°C 66.5°F19.2°C 98% 1.6 mph SSE2.6 kmh SSE 3.1 mph5.0 kmh 29.66 in1004.4 mb 0.00 in0.0 mm 0.00 in/hr0.0 mm/hr 0.00 in0.0 mm
08:15 PM 67.1°F19.5°C 66.5°F19.2°C 98% 1.6 mph SSE2.6 kmh SSE 3.1 mph5.0 kmh 29.66 in1004.4 mb 0.00 in0.0 mm 0.00 in/hr0.0 mm/hr 0.00 in0.0 mm
08:30 PM 67.1°F19.5°C 66.5°F19.2°C 98% 1.6 mph SSE2.6 kmh SSE 3.1 mph5.0 kmh 29.66 in1004.4 mb 0.00 in0.0 mm 0.00 in/hr0.0 mm/hr 0.00 in0.0 mm
08:45 PM 67.1°F19.5°C 66.5°F19.2°C 98% 1.6 mph SSE2.6 kmh SSE 3.1 mph5.0 kmh 29.67 in1004.7 mb 0.00 in0.0 mm 0.00 in/hr0.0 mm/hr 0.00 in0.0 mm
09:00 PM 67.1°F19.5°C 66.5°F19.2°C 98% 1.6 mph SSE2.6 kmh SSE 3.1 mph5.0 kmh 29.68 in1005.1 mb 0.00 in0.0 mm 0.00 in/hr0.0 mm/hr 0.00 in0.0 mm
09:15 PM 67.1°F19.5°C 66.5°F19.2°C 98% 1.6 mph SSE2.6 kmh SSE 3.1 mph5.0 kmh 29.68 in1005.1 mb 0.00 in0.0 mm 0.00 in/hr0.0 mm/hr 0.00 in0.0 mm
09:30 PM 67.1°F19.5°C 66.5°F19.2°C 98% 1.6 mph SSE2.6 kmh SSE 3.1 mph5.0 kmh 29.69 in1005.4 mb 0.00 in0.0 mm 0.00 in/hr0.0 mm/hr 0.00 in0.0 mm
09:45 PM 67.1°F19.5°C 66.5°F19.2°C 98% 1.6 mph SSE2.6 kmh SSE 3.1 mph5.0 kmh 29.69 in1005.4 mb 0.00 in0.0 mm 0.00 in/hr0.0 mm/hr 0.00 in0.0 mm
10:00 PM 67.1°F19.5°C 66.5°F19.2°C 98% 1.6 mph SSE2.6 kmh SSE 3.1 mph5.0 kmh 29.70 in1005.8 mb 0.00 in0.0 mm 0.00 in/hr0.0 mm/hr 0.00 in0.0 mm
10:15 PM 67.1°F19.5°C 66.5°F19.2°C 98% 1.6 mph SSE2.6 kmh SSE 3.1 mph5.0 kmh 29.70 in1005.8 mb 0.00 in0.0 mm 0.00 in/hr0.0 mm/hr 0.00 in0.0 mm
10:30 PM 67.1°F19.5°C 66.5°F19.2°C 98% 1.6 mph SSE2.6 kmh SSE 3.1 mph5.0 kmh 29.70 in1005.8 mb 0.00 in0.0 mm 0.00 in/hr0.0 mm/hr 0.00 in0.0 mm
10:45 PM 67.1°F19.5°C 66.5°F19.2°C 98% 1.6 mph SSE2.6 kmh SSE 3.1 mph5.0 kmh 29.69 in1005.4 mb 0.00 in0.0 mm 0.00 in/hr0.0 mm/hr 0.00 in0.0 mm
11:00 PM 67.1°F19.5°C 66.5°F19.2°C 98% 1.6 mph SSE2.6 kmh SSE 3.1 mph5.0 kmh 29.69 in1005.4 mb 0.00 in0.0 mm 0.00 in/hr0.0 mm/hr 0.00 in0.0 mm
11:15 PM 67.1°F19.5°C 66.5°F19.2°C 98% 1.6 mph SSE2.6 kmh SSE 3.1 mph5.0 kmh 29.70 in1005.8 mb 0.00 in0.0 mm 0.00 in/hr0.0 mm/hr 0.00 in0.0 mm
11:30 PM 67.1°F19.5°C 66.5°F19.2°C 98% 1.6 mph SSE2.6 kmh SSE 3.1 mph5.0 kmh 29.70 in1005.8 mb 0.00 in0.0 mm 0.00 in/hr0.0 mm/hr 0.00 in0.0 mm
11:45 PM 67.1°F19.5°C 66.5°F19.2°C 98% 1.6 mph SSE2.6 kmh SSE 3.1 mph5.0 kmh 29.70 in1005.8 mb 0.00 in0.0 mm 0.00 in/hr0.0 mm/hr 0.00 in0.0 mm